SPTHC EPKK-EPKK
Flight info
| Callsign | SPTHC |
|---|---|
| Flight time | N/A |
| Altitude | 2000 |
| Route | DCT |
| Aircraft | C172/L-SFG/C |
Departure
| Time | 2026-05-07 18:38 |
|---|---|
| Airport | Kraków John Paul II International Airport (EPKK) |
Arrival
| Time | N/A |
|---|---|
| Airport | Kraków John Paul II International Airport (EPKK) |
| Time | Latitude | Longitude | Altitude | Speed | Heading |
|---|---|---|---|---|---|
| 2026-05-07 18:14 | 50.07704 | 19.80159 | 796 ft | 0 kts | 347° |
| 2026-05-07 18:29 | 50.07721 | 19.80153 | 795 ft | 5 kts | 346° |
| 2026-05-07 18:29 | 50.07751 | 19.80161 | 795 ft | 3 kts | 56° |
| 2026-05-07 18:29 | 50.07759 | 19.80200 | 795 ft | 4 kts | 77° |
| 2026-05-07 18:30 | 50.07766 | 19.80251 | 795 ft | 6 kts | 77° |
| 2026-05-07 18:30 | 50.07775 | 19.80308 | 795 ft | 6 kts | 72° |
| 2026-05-07 18:30 | 50.07805 | 19.80345 | 796 ft | 4 kts | 8° |
| 2026-05-07 18:30 | 50.07824 | 19.80342 | 795 ft | 1 kts | 347° |
| 2026-05-07 18:31 | 50.07827 | 19.80341 | 795 ft | 0 kts | 348° |
| 2026-05-07 18:33 | 50.07828 | 19.80341 | 795 ft | 0 kts | 349° |
| 2026-05-07 18:33 | 50.07835 | 19.80338 | 795 ft | 1 kts | 348° |
| 2026-05-07 18:33 | 50.07851 | 19.80333 | 795 ft | 3 kts | 347° |
| 2026-05-07 18:34 | 50.07854 | 19.80332 | 795 ft | 0 kts | 348° |
| 2026-05-07 18:35 | 50.07856 | 19.80331 | 795 ft | 1 kts | 349° |
| 2026-05-07 18:35 | 50.07880 | 19.80324 | 795 ft | 7 kts | 347° |
| 2026-05-07 18:35 | 50.07939 | 19.80304 | 795 ft | 11 kts | 347° |
| 2026-05-07 18:35 | 50.07999 | 19.80271 | 795 ft | 9 kts | 324° |
| 2026-05-07 18:36 | 50.08012 | 19.80208 | 795 ft | 7 kts | 262° |
| 2026-05-07 18:36 | 50.08009 | 19.80178 | 795 ft | 0 kts | 255° |
| 2026-05-07 18:36 | 50.08008 | 19.80172 | 795 ft | 8 kts | 252° |
| 2026-05-07 18:36 | 50.07966 | 19.79867 | 796 ft | 54 kts | 256° |
| 2026-05-07 18:37 | 50.07885 | 19.79261 | 821 ft | 75 kts | 256° |
| 2026-05-07 18:37 | 50.07798 | 19.78607 | 971 ft | 71 kts | 255° |
| 2026-05-07 18:37 | 50.07714 | 19.77978 | 1102 ft | 71 kts | 255° |
| 2026-05-07 18:37 | 50.07618 | 19.77297 | 1206 ft | 78 kts | 253° |
| 2026-05-07 18:38 | 50.07525 | 19.76615 | 1360 ft | 77 kts | 251° |
| 2026-05-07 18:38 | 50.07252 | 19.76050 | 1479 ft | 80 kts | 210° |
| 2026-05-07 18:38 | 50.06762 | 19.75990 | 1553 ft | 82 kts | 168° |
| 2026-05-07 18:38 | 50.06255 | 19.76235 | 1610 ft | 84 kts | 163° |
| 2026-05-07 18:39 | 50.05771 | 19.76552 | 1646 ft | 83 kts | 159° |
| 2026-05-07 18:39 | 50.05311 | 19.76921 | 1666 ft | 83 kts | 156° |
| 2026-05-07 18:39 | 50.04826 | 19.77109 | 1682 ft | 79 kts | 185° |
| 2026-05-07 18:39 | 50.04405 | 19.76806 | 1661 ft | 81 kts | 230° |
| 2026-05-07 18:40 | 50.04053 | 19.76274 | 1670 ft | 82 kts | 198° |
| 2026-05-07 18:40 | 50.03587 | 19.76442 | 1658 ft | 89 kts | 137° |
| 2026-05-07 18:40 | 50.03462 | 19.77274 | 1671 ft | 96 kts | 77° |
| 2026-05-07 18:40 | 50.03674 | 19.78168 | 1645 ft | 100 kts | 64° |
| 2026-05-07 18:41 | 50.03931 | 19.79035 | 1645 ft | 100 kts | 64° |
| 2026-05-07 18:41 | 50.04224 | 19.79862 | 1645 ft | 101 kts | 53° |
| 2026-05-07 18:41 | 50.04727 | 19.80368 | 1631 ft | 100 kts | 4° |
| 2026-05-07 18:41 | 50.05254 | 19.80119 | 1605 ft | 94 kts | 308° |
| 2026-05-07 18:42 | 50.05455 | 19.79400 | 1622 ft | 86 kts | 271° |
| 2026-05-07 18:42 | 50.05428 | 19.78622 | 1628 ft | 85 kts | 257° |
| 2026-05-07 18:42 | 50.05331 | 19.77843 | 1635 ft | 84 kts | 252° |
| 2026-05-07 18:42 | 50.05194 | 19.77087 | 1653 ft | 83 kts | 246° |
| 2026-05-07 18:43 | 50.04995 | 19.76350 | 1641 ft | 84 kts | 241° |
| 2026-05-07 18:43 | 50.04698 | 19.75748 | 1663 ft | 82 kts | 212° |
| 2026-05-07 18:43 | 50.04213 | 19.75615 | 1648 ft | 87 kts | 172° |
| 2026-05-07 18:43 | 50.03743 | 19.76002 | 1662 ft | 90 kts | 140° |
| 2026-05-07 18:44 | 50.03434 | 19.76773 | 1625 ft | 99 kts | 109° |
| 2026-05-07 18:44 | 50.03426 | 19.77716 | 1634 ft | 101 kts | 77° |
| 2026-05-07 18:44 | 50.03606 | 19.78655 | 1620 ft | 103 kts | 71° |
| 2026-05-07 18:44 | 50.03807 | 19.79580 | 1616 ft | 103 kts | 70° |
| 2026-05-07 18:45 | 50.04121 | 19.80390 | 1643 ft | 99 kts | 33° |
| 2026-05-07 18:45 | 50.04678 | 19.80648 | 1632 ft | 97 kts | 351° |
| 2026-05-07 18:45 | 50.05149 | 19.80261 | 1622 ft | 91 kts | 298° |
| 2026-05-07 18:45 | 50.05296 | 19.79499 | 1619 ft | 87 kts | 261° |
| 2026-05-07 18:46 | 50.05188 | 19.78723 | 1605 ft | 86 kts | 246° |
| 2026-05-07 18:46 | 50.04997 | 19.77964 | 1596 ft | 87 kts | 243° |
| 2026-05-07 18:46 | 50.04757 | 19.77235 | 1599 ft | 86 kts | 238° |
| 2026-05-07 18:46 | 50.04526 | 19.76515 | 1602 ft | 86 kts | 238° |
| 2026-05-07 18:47 | 50.04260 | 19.75790 | 1599 ft | 86 kts | 236° |
| 2026-05-07 18:47 | 50.03894 | 19.75229 | 1603 ft | 85 kts | 204° |
| 2026-05-07 18:47 | 50.03385 | 19.75201 | 1586 ft | 90 kts | 163° |
| 2026-05-07 18:47 | 50.02978 | 19.75809 | 1555 ft | 100 kts | 117° |
| 2026-05-07 18:48 | 50.02916 | 19.76771 | 1556 ft | 102 kts | 84° |
| 2026-05-07 18:48 | 50.03086 | 19.77722 | 1548 ft | 104 kts | 72° |
| 2026-05-07 18:48 | 50.03323 | 19.78657 | 1537 ft | 105 kts | 65° |
| 2026-05-07 18:48 | 50.03745 | 19.79371 | 1547 ft | 102 kts | 27° |
| 2026-05-07 18:49 | 50.04347 | 19.79581 | 1531 ft | 102 kts | 356° |
| 2026-05-07 18:49 | 50.04958 | 19.79584 | 1525 ft | 102 kts | 354° |
| 2026-05-07 18:49 | 50.05579 | 19.79533 | 1514 ft | 103 kts | 353° |
| 2026-05-07 18:49 | 50.06173 | 19.79678 | 1523 ft | 104 kts | 26° |
| 2026-05-07 18:50 | 50.06583 | 19.80383 | 1516 ft | 103 kts | 73° |
| 2026-05-07 18:50 | 50.06755 | 19.81310 | 1529 ft | 102 kts | 74° |
| 2026-05-07 18:50 | 50.06944 | 19.82271 | 1529 ft | 102 kts | 75° |
| 2026-05-07 18:50 | 50.07186 | 19.83161 | 1534 ft | 102 kts | 52° |
| 2026-05-07 18:51 | 50.07719 | 19.83615 | 1514 ft | 102 kts | 359° |
| 2026-05-07 18:51 | 50.08339 | 19.83482 | 1523 ft | 97 kts | 327° |
| 2026-05-07 18:51 | 50.08540 | 19.82790 | 1472 ft | 88 kts | 250° |
| 2026-05-07 18:51 | 50.08350 | 19.82018 | 1295 ft | 90 kts | 248° |
| 2026-05-07 18:52 | 50.08192 | 19.81231 | 1151 ft | 87 kts | 252° |
| 2026-05-07 18:52 | 50.08058 | 19.80433 | 1007 ft | 86 kts | 254° |
| 2026-05-07 18:52 | 50.07935 | 19.79616 | 871 ft | 91 kts | 255° |
| 2026-05-07 18:52 | 50.07816 | 19.78782 | 829 ft | 92 kts | 254° |
| 2026-05-07 18:53 | 50.07704 | 19.77962 | 966 ft | 90 kts | 256° |
| 2026-05-07 18:53 | 50.07613 | 19.77225 | 1200 ft | 80 kts | 255° |
| 2026-05-07 18:53 | 50.07509 | 19.76549 | 1359 ft | 78 kts | 242° |
| 2026-05-07 18:53 | 50.07178 | 19.76090 | 1493 ft | 80 kts | 199° |
| 2026-05-07 18:54 | 50.06675 | 19.76069 | 1585 ft | 89 kts | 174° |
| 2026-05-07 18:54 | 50.06192 | 19.76373 | 1684 ft | 93 kts | 135° |
| 2026-05-07 18:54 | 50.06096 | 19.77227 | 1703 ft | 101 kts | 83° |
| 2026-05-07 18:54 | 50.06260 | 19.78186 | 1703 ft | 104 kts | 72° |
| 2026-05-07 18:55 | 50.06465 | 19.79122 | 1704 ft | 105 kts | 72° |
| 2026-05-07 18:55 | 50.06668 | 19.80046 | 1710 ft | 105 kts | 74° |
| 2026-05-07 18:55 | 50.06840 | 19.81004 | 1720 ft | 103 kts | 79° |
| 2026-05-07 18:55 | 50.07011 | 19.81991 | 1705 ft | 104 kts | 76° |
| 2026-05-07 18:56 | 50.07211 | 19.82937 | 1706 ft | 103 kts | 62° |
| 2026-05-07 18:56 | 50.07655 | 19.83573 | 1679 ft | 102 kts | 12° |
| 2026-05-07 18:56 | 50.08271 | 19.83593 | 1621 ft | 96 kts | 334° |
| 2026-05-07 18:56 | 50.08630 | 19.83068 | 1589 ft | 82 kts | 269° |
| 2026-05-07 18:57 | 50.08498 | 19.82346 | 1426 ft | 86 kts | 244° |
| 2026-05-07 18:57 | 50.08290 | 19.81624 | 1264 ft | 86 kts | 247° |
| 2026-05-07 18:57 | 50.08138 | 19.80852 | 1079 ft | 89 kts | 251° |
| 2026-05-07 18:57 | 50.08000 | 19.80052 | 915 ft | 89 kts | 254° |
| 2026-05-07 18:58 | 50.07880 | 19.79250 | 827 ft | 90 kts | 251° |
| 2026-05-07 18:58 | 50.07769 | 19.78421 | 928 ft | 96 kts | 255° |
| 2026-05-07 18:58 | 50.07656 | 19.77591 | 1114 ft | 91 kts | 253° |
| 2026-05-07 18:58 | 50.07554 | 19.76860 | 1338 ft | 81 kts | 247° |
| 2026-05-07 18:59 | 50.07274 | 19.76300 | 1480 ft | 80 kts | 207° |
| 2026-05-07 18:59 | 50.06809 | 19.76172 | 1587 ft | 86 kts | 178° |
| 2026-05-07 18:59 | 50.06292 | 19.76371 | 1684 ft | 94 kts | 149° |
| 2026-05-07 18:59 | 50.06007 | 19.77139 | 1706 ft | 100 kts | 97° |
| 2026-05-07 19:00 | 50.06098 | 19.78080 | 1697 ft | 105 kts | 75° |
| 2026-05-07 19:00 | 50.06288 | 19.79002 | 1686 ft | 106 kts | 75° |
| 2026-05-07 19:00 | 50.06438 | 19.79950 | 1696 ft | 103 kts | 88° |
| 2026-05-07 19:00 | 50.06240 | 19.80784 | 1682 ft | 95 kts | 147° |
| 2026-05-07 19:01 | 50.05750 | 19.80858 | 1665 ft | 86 kts | 209° |
| 2026-05-07 19:01 | 50.05417 | 19.80301 | 1643 ft | 87 kts | 239° |
| 2026-05-07 19:01 | 50.05280 | 19.79540 | 1655 ft | 86 kts | 254° |
| 2026-05-07 19:01 | 50.05180 | 19.78759 | 1650 ft | 87 kts | 253° |
| 2026-05-07 19:02 | 50.05069 | 19.77991 | 1644 ft | 87 kts | 251° |
| 2026-05-07 19:02 | 50.04940 | 19.77237 | 1646 ft | 86 kts | 250° |
| 2026-05-07 19:02 | 50.04789 | 19.76492 | 1646 ft | 86 kts | 246° |
| 2026-05-07 19:02 | 50.04549 | 19.75848 | 1659 ft | 84 kts | 225° |
| 2026-05-07 19:03 | 50.04101 | 19.75535 | 1639 ft | 89 kts | 186° |
| 2026-05-07 19:03 | 50.03599 | 19.75837 | 1624 ft | 96 kts | 143° |
| 2026-05-07 19:03 | 50.03307 | 19.76612 | 1604 ft | 102 kts | 107° |
| 2026-05-07 19:03 | 50.03281 | 19.77565 | 1598 ft | 104 kts | 82° |
| 2026-05-07 19:04 | 50.03448 | 19.78517 | 1595 ft | 104 kts | 73° |
| 2026-05-07 19:04 | 50.03627 | 19.79435 | 1599 ft | 103 kts | 74° |
| 2026-05-07 19:04 | 50.03866 | 19.80306 | 1612 ft | 101 kts | 46° |
| 2026-05-07 19:04 | 50.04385 | 19.80657 | 1605 ft | 97 kts | 355° |
| 2026-05-07 19:05 | 50.04881 | 19.80339 | 1569 ft | 94 kts | 309° |
| 2026-05-07 19:05 | 50.05095 | 19.79611 | 1584 ft | 87 kts | 271° |
| 2026-05-07 19:05 | 50.05047 | 19.78859 | 1585 ft | 85 kts | 252° |
| 2026-05-07 19:05 | 50.04930 | 19.78109 | 1588 ft | 85 kts | 254° |
| 2026-05-07 19:06 | 50.05008 | 19.77369 | 1592 ft | 89 kts | 293° |
| 2026-05-07 19:06 | 50.06002 | 19.77094 | 1565 ft | 104 kts | 30° |
| 2026-05-07 19:06 | 50.06382 | 19.77814 | 1568 ft | 103 kts | 68° |
| 2026-05-07 19:07 | 50.06546 | 19.78740 | 1558 ft | 103 kts | 78° |
| 2026-05-07 19:07 | 50.06689 | 19.79677 | 1553 ft | 104 kts | 79° |
| 2026-05-07 19:07 | 50.06811 | 19.80657 | 1545 ft | 104 kts | 81° |
| 2026-05-07 19:07 | 50.06923 | 19.81656 | 1542 ft | 104 kts | 82° |
| 2026-05-07 19:08 | 50.07031 | 19.82646 | 1547 ft | 103 kts | 82° |
| 2026-05-07 19:08 | 50.07144 | 19.83618 | 1568 ft | 100 kts | 79° |
| 2026-05-07 19:08 | 50.07443 | 19.84371 | 1588 ft | 97 kts | 25° |
| 2026-05-07 19:08 | 50.07996 | 19.84520 | 1573 ft | 94 kts | 348° |
| 2026-05-07 19:09 | 50.08539 | 19.84255 | 1549 ft | 92 kts | 313° |
| 2026-05-07 19:09 | 50.08702 | 19.83557 | 1494 ft | 84 kts | 256° |
| 2026-05-07 19:09 | 50.08525 | 19.82808 | 1402 ft | 90 kts | 243° |
| 2026-05-07 19:09 | 50.08346 | 19.82025 | 1284 ft | 90 kts | 250° |
| 2026-05-07 19:10 | 50.08194 | 19.81253 | 1150 ft | 87 kts | 250° |
| 2026-05-07 19:10 | 50.08058 | 19.80479 | 1003 ft | 86 kts | 253° |
| 2026-05-07 19:10 | 50.07948 | 19.79700 | 876 ft | 85 kts | 253° |
| 2026-05-07 19:10 | 50.07822 | 19.78833 | 835 ft | 104 kts | 255° |
| 2026-05-07 19:11 | 50.07680 | 19.77827 | 819 ft | 117 kts | 255° |
| 2026-05-07 19:11 | 50.07553 | 19.76867 | 1143 ft | 95 kts | 254° |
| 2026-05-07 19:11 | 50.07370 | 19.76150 | 1374 ft | 83 kts | 223° |
| 2026-05-07 19:11 | 50.06930 | 19.75899 | 1492 ft | 88 kts | 176° |
| 2026-05-07 19:12 | 50.06392 | 19.76101 | 1593 ft | 94 kts | 161° |
| 2026-05-07 19:12 | 50.05993 | 19.76699 | 1738 ft | 98 kts | 109° |
| 2026-05-07 19:12 | 50.06017 | 19.77626 | 1782 ft | 103 kts | 75° |
| 2026-05-07 19:12 | 50.06206 | 19.78542 | 1767 ft | 104 kts | 86° |
| 2026-05-07 19:13 | 50.06061 | 19.79407 | 1759 ft | 96 kts | 134° |
| 2026-05-07 19:13 | 50.05585 | 19.79755 | 1727 ft | 89 kts | 186° |
| 2026-05-07 19:13 | 50.05132 | 19.79435 | 1713 ft | 87 kts | 220° |
| 2026-05-07 19:13 | 50.04803 | 19.78820 | 1705 ft | 87 kts | 238° |
| 2026-05-07 19:14 | 50.04619 | 19.78098 | 1713 ft | 86 kts | 252° |
| 2026-05-07 19:14 | 50.04536 | 19.77338 | 1716 ft | 85 kts | 256° |
| 2026-05-07 19:14 | 50.04427 | 19.76574 | 1722 ft | 84 kts | 252° |
| 2026-05-07 19:14 | 50.04307 | 19.75836 | 1731 ft | 83 kts | 246° |
| 2026-05-07 19:15 | 50.04017 | 19.75279 | 1732 ft | 81 kts | 205° |
| 2026-05-07 19:15 | 50.03537 | 19.75286 | 1711 ft | 88 kts | 156° |
| 2026-05-07 19:15 | 50.03174 | 19.75923 | 1668 ft | 99 kts | 117° |
| 2026-05-07 19:15 | 50.03128 | 19.76855 | 1654 ft | 103 kts | 80° |
| 2026-05-07 19:16 | 50.03305 | 19.77804 | 1624 ft | 105 kts | 71° |
| 2026-05-07 19:16 | 50.03497 | 19.78744 | 1618 ft | 104 kts | 75° |
| 2026-05-07 19:16 | 50.03664 | 19.79671 | 1629 ft | 102 kts | 75° |
| 2026-05-07 19:16 | 50.03887 | 19.80542 | 1637 ft | 99 kts | 41° |
| 2026-05-07 19:17 | 50.04398 | 19.80863 | 1623 ft | 96 kts | 356° |
| 2026-05-07 19:17 | 50.04917 | 19.80625 | 1605 ft | 93 kts | 314° |
| 2026-05-07 19:17 | 50.05132 | 19.79919 | 1589 ft | 87 kts | 267° |
| 2026-05-07 19:17 | 50.05114 | 19.79128 | 1576 ft | 87 kts | 259° |
| 2026-05-07 19:18 | 50.05042 | 19.78371 | 1604 ft | 83 kts | 252° |
| 2026-05-07 19:18 | 50.04912 | 19.77639 | 1616 ft | 82 kts | 249° |
| 2026-05-07 19:18 | 50.04766 | 19.76917 | 1621 ft | 82 kts | 248° |
| 2026-05-07 19:18 | 50.04618 | 19.76194 | 1633 ft | 81 kts | 248° |
| 2026-05-07 19:19 | 50.04532 | 19.75482 | 1656 ft | 81 kts | 275° |
| 2026-05-07 19:19 | 50.04828 | 19.74931 | 1666 ft | 91 kts | 340° |
| 2026-05-07 19:19 | 50.05350 | 19.75188 | 1617 ft | 108 kts | 43° |
| 2026-05-07 19:19 | 50.05722 | 19.76058 | 1599 ft | 111 kts | 62° |
| 2026-05-07 19:20 | 50.06008 | 19.76955 | 1611 ft | 109 kts | 67° |
| 2026-05-07 19:20 | 50.06263 | 19.77893 | 1621 ft | 108 kts | 70° |
| 2026-05-07 19:20 | 50.06483 | 19.78833 | 1624 ft | 107 kts | 72° |
| 2026-05-07 19:20 | 50.06686 | 19.79783 | 1586 ft | 110 kts | 73° |